createdAt,value
2019-04-25T00:00:23.059Z,99913.28
2019-04-25T00:02:52.591Z,99905.88
2019-04-25T00:05:22.356Z,99894.59
2019-04-25T00:07:51.861Z,99890.67
2019-04-25T00:10:22.054Z,99882.87
2019-04-25T00:12:51.850Z,99880.27
2019-04-25T00:15:22.395Z,99873.80
2019-04-25T00:17:52.242Z,99876.80
2019-04-25T00:20:22.041Z,99876.36
2019-04-25T00:22:53.426Z,99871.16
2019-04-25T00:25:31.399Z,99879.74
2019-04-25T00:28:01.846Z,99878.83
2019-04-25T00:30:33.045Z,99868.49
2019-04-25T00:33:02.539Z,99860.27
2019-04-25T00:35:32.279Z,99858.55
2019-04-25T00:38:02.368Z,99861.58
2019-04-25T00:40:32.056Z,99865.45
2019-04-25T00:43:01.705Z,99866.33
2019-04-25T00:45:31.739Z,99862.41
2019-04-25T00:48:03.962Z,99858.11
2019-04-25T00:50:32.819Z,99867.64
2019-04-25T00:53:02.292Z,99876.23
2019-04-25T00:55:31.914Z,99885.28
2019-04-25T00:58:05.744Z,99888.26
2019-04-25T01:00:36.964Z,99884.40
2019-04-25T01:03:11.524Z,99889.98
2019-04-25T01:05:42.478Z,99903.83
2019-04-25T01:08:12.499Z,99896.59
2019-04-25T01:10:42.000Z,99902.23
2019-04-25T01:13:11.667Z,99902.69
2019-04-25T01:15:42.510Z,99912.16
2019-04-25T01:18:12.305Z,99916.41
2019-04-25T01:20:43.344Z,99919.46
2019-04-25T01:23:13.784Z,99913.87
2019-04-25T01:25:44.713Z,99917.75
2019-04-25T01:28:14.597Z,99913.82
2019-04-25T01:30:44.159Z,99933.33
2019-04-25T01:33:13.975Z,99933.70
2019-04-25T01:35:46.209Z,99930.71
2019-04-25T01:38:16.454Z,99929.37
2019-04-25T01:40:48.536Z,99919.00
2019-04-25T01:43:20.532Z,99924.18
2019-04-25T01:45:50.075Z,99929.72
2019-04-25T01:48:19.637Z,99924.50
2019-04-25T01:50:49.624Z,99921.45
2019-04-25T01:53:19.957Z,99919.30
2019-04-25T01:55:55.894Z,99920.16
2019-04-25T01:58:20.763Z,99918.80
2019-04-25T02:00:54.573Z,99920.50
2019-04-25T02:03:26.997Z,99920.10
2019-04-25T02:05:55.235Z,99920.09
2019-04-25T02:08:25.587Z,99922.72
2019-04-25T02:10:57.837Z,99920.13
2019-04-25T02:13:27.584Z,99929.62
2019-04-25T02:15:57.232Z,99934.84
2019-04-25T02:18:26.719Z,99937.45
2019-04-25T02:20:59.104Z,99940.95
2019-04-25T02:23:27.397Z,99937.45
2019-04-25T02:26:08.956Z,99940.05
2019-04-25T02:28:28.140Z,99941.72
2019-04-25T02:31:00.611Z,99943.10
2019-04-25T02:33:29.090Z,99946.55
2019-04-25T02:36:00.975Z,99947.42
2019-04-25T02:38:29.800Z,99950.41
2019-04-25T02:41:01.939Z,99951.67
2019-04-25T02:43:30.569Z,99957.30
2019-04-25T02:46:08.983Z,99950.28
2019-04-25T02:48:49.729Z,99945.94
2019-04-25T02:51:24.579Z,99949.42
2019-04-25T02:53:56.202Z,99945.08
2019-04-25T02:56:33.662Z,99945.51
2019-04-25T02:58:58.509Z,99943.31
2019-04-25T03:01:28.143Z,99941.63
2019-04-25T03:03:59.206Z,99945.84
2019-04-25T03:06:29.020Z,99939.80
2019-04-25T03:09:00.131Z,99947.20
2019-04-25T03:11:29.791Z,99948.89
2019-04-25T03:14:00.546Z,99949.33
2019-04-25T03:16:30.346Z,99951.02
2019-04-25T03:19:02.899Z,99943.19
2019-04-25T03:21:39.732Z,99944.51
2019-04-25T03:24:12.932Z,99950.91
2019-04-25T03:26:40.810Z,99943.19
2019-04-25T03:29:10.394Z,99943.58
2019-04-25T03:31:39.947Z,99950.05
2019-04-25T03:34:14.050Z,99948.76
2019-04-25T03:36:40.712Z,99950.45
2019-04-25T03:39:10.194Z,99948.39
2019-04-25T03:41:39.674Z,99942.39
2019-04-25T03:44:10.041Z,99946.63
2019-04-25T03:46:39.669Z,99952.64
2019-04-25T03:49:09.698Z,99950.44
2019-04-25T03:51:39.236Z,99956.09
2019-04-25T03:54:10.607Z,99960.88
2019-04-25T03:56:49.850Z,99962.17
2019-04-25T03:59:11.332Z,99961.27
2019-04-25T04:01:40.822Z,99962.84
2019-04-25T04:04:11.086Z,99960.33
2019-04-25T04:06:40.694Z,99963.39
2019-04-25T04:09:10.195Z,99953.50
2019-04-25T04:11:39.684Z,99955.33
2019-04-25T04:14:09.217Z,99948.09
2019-04-25T04:16:40.367Z,99949.05
2019-04-25T04:19:10.609Z,99947.76
2019-04-25T04:21:50.680Z,99949.42
2019-04-25T04:24:21.829Z,99952.94
2019-04-25T04:27:12.023Z,99961.67
2019-04-25T04:29:43.106Z,99965.15
2019-04-25T04:32:14.393Z,99971.14
2019-04-25T04:34:45.495Z,99964.34
2019-04-25T04:37:16.206Z,99965.64
2019-04-25T04:39:45.795Z,99965.23
2019-04-25T04:42:16.110Z,99976.96
2019-04-25T04:44:45.681Z,99972.64
2019-04-25T04:47:15.506Z,99973.56
2019-04-25T04:49:45.206Z,99977.02
2019-04-25T04:52:15.789Z,99987.47
2019-04-25T04:54:45.342Z,99987.95
2019-04-25T04:57:26.640Z,99980.59
2019-04-25T04:59:46.034Z,99993.20
2019-04-25T05:02:27.459Z,99989.27
2019-04-25T05:04:58.578Z,99987.13
2019-04-25T05:07:47.311Z,99987.22
2019-04-25T05:10:18.649Z,99992.38
2019-04-25T05:12:48.071Z,99976.34
2019-04-25T05:15:18.935Z,99974.68
2019-04-25T05:17:48.707Z,99976.90
2019-04-25T05:20:18.878Z,99972.16
2019-04-25T05:22:48.518Z,99963.55
2019-04-25T05:25:19.053Z,99960.56
2019-04-25T05:27:59.642Z,99965.41
2019-04-25T05:30:23.968Z,99958.98
2019-04-25T05:32:54.337Z,99966.81
2019-04-25T05:35:24.416Z,99959.89
2019-04-25T05:37:54.842Z,99958.58
2019-04-25T05:40:25.364Z,99954.68
2019-04-25T05:42:56.539Z,99965.48
2019-04-25T05:45:27.818Z,99976.80
2019-04-25T05:47:57.304Z,99984.62
2019-04-25T05:50:26.793Z,99994.17
2019-04-25T05:52:56.288Z,99994.16
2019-04-25T05:55:26.569Z,99988.94
2019-04-25T05:57:56.072Z,99997.17
2019-04-25T06:00:26.043Z,100001.51
2019-04-25T06:02:56.336Z,99986.77
2019-04-25T06:05:27.230Z,99994.56
2019-04-25T06:07:56.980Z,100008.42
2019-04-25T06:10:33.887Z,100013.63
2019-04-25T06:13:04.137Z,100015.73
2019-04-25T06:15:35.200Z,100020.84
2019-04-25T06:18:13.892Z,100025.60
2019-04-25T06:20:44.280Z,100027.36
2019-04-25T06:23:25.585Z,100024.77
2019-04-25T06:25:55.263Z,100022.48
2019-04-25T06:28:29.042Z,100003.91
2019-04-25T06:30:58.543Z,100001.23
2019-04-25T06:33:29.045Z,100003.42
2019-04-25T06:35:58.562Z,100009.05
2019-04-25T06:38:28.390Z,100012.54
2019-04-25T06:40:57.912Z,100012.99
2019-04-25T06:43:28.007Z,100006.95
2019-04-25T06:46:15.414Z,100019.05
2019-04-25T06:48:46.613Z,100021.25
2019-04-25T06:51:16.202Z,100019.45
2019-04-25T06:53:45.724Z,100034.50
2019-04-25T06:56:15.312Z,100025.28
2019-04-25T06:58:44.879Z,100034.38
2019-04-25T07:01:14.463Z,100038.66
2019-04-25T07:03:44.269Z,100048.47
2019-04-25T07:06:14.817Z,100051.57
2019-04-25T07:08:44.844Z,100053.16
2019-04-25T07:11:14.490Z,100063.61
2019-04-25T07:13:44.025Z,100055.98
2019-04-25T07:16:13.651Z,100065.58
2019-04-25T07:18:43.672Z,100069.16
2019-04-25T07:21:14.183Z,100073.39
2019-04-25T07:23:46.196Z,100068.98
2019-04-25T07:26:17.294Z,100074.08
2019-04-25T07:29:00.020Z,100074.52
2019-04-25T07:31:37.064Z,100073.11
2019-04-25T07:34:08.295Z,100073.42
2019-04-25T07:36:37.797Z,100081.70
2019-04-25T07:39:10.734Z,100076.68
2019-04-25T07:41:40.441Z,100069.82
2019-04-25T07:44:10.005Z,100070.75
2019-04-25T07:46:40.180Z,100080.06
2019-04-25T07:49:09.910Z,100082.70
2019-04-25T07:51:39.565Z,100081.71
2019-04-25T07:54:09.183Z,100093.28
2019-04-25T07:56:38.749Z,100096.27
2019-04-25T07:59:08.705Z,100097.58
2019-04-25T08:01:39.089Z,100107.12
2019-04-25T08:04:08.684Z,100102.88
2019-04-25T08:06:38.325Z,100105.14
2019-04-25T08:09:11.276Z,100098.40
2019-04-25T08:11:41.102Z,100097.33
2019-04-25T08:14:12.311Z,100111.36
2019-04-25T08:16:55.795Z,100113.70
2019-04-25T08:19:26.425Z,100110.28
2019-04-25T08:21:57.024Z,100111.45
2019-04-25T08:24:27.076Z,100104.58
2019-04-25T08:26:57.243Z,100101.86
2019-04-25T08:29:26.782Z,100105.89
2019-04-25T08:31:56.433Z,100105.87
2019-04-25T08:34:25.997Z,100099.46
2019-04-25T08:36:55.487Z,100098.86
2019-04-25T08:39:25.131Z,100106.87
2019-04-25T08:41:54.627Z,100117.37
2019-04-25T08:44:24.272Z,100115.23
2019-04-25T08:46:53.939Z,100112.25
2019-04-25T08:49:25.091Z,100117.90
2019-04-25T08:51:56.485Z,100111.75
2019-04-25T08:54:31.211Z,100114.61
2019-04-25T08:57:04.318Z,100125.64
2019-04-25T08:59:50.508Z,100119.92
2019-04-25T09:02:29.922Z,100112.08
2019-04-25T09:05:19.021Z,100110.45
2019-04-25T09:07:48.584Z,100107.84
2019-04-25T09:10:18.111Z,100093.92
2019-04-25T09:12:47.750Z,100098.16
2019-04-25T09:15:17.374Z,100105.16
2019-04-25T09:17:47.255Z,100110.48
2019-04-25T09:20:17.258Z,100115.60
2019-04-25T09:22:46.762Z,100111.47
2019-04-25T09:25:17.574Z,100111.75
2019-04-25T09:27:47.118Z,100113.91
2019-04-25T09:30:16.872Z,100110.92
2019-04-25T09:32:46.369Z,100116.11
2019-04-25T09:35:15.952Z,100113.68
2019-04-25T09:37:46.239Z,100117.55
2019-04-25T09:40:17.369Z,100103.52
2019-04-25T09:42:47.150Z,100097.90
2019-04-25T09:45:25.860Z,100092.14
2019-04-25T09:47:55.984Z,100084.84
2019-04-25T09:50:34.002Z,100083.59
2019-04-25T09:53:04.552Z,100077.86
2019-04-25T09:55:39.899Z,100071.33
2019-04-25T09:58:17.057Z,100070.24
2019-04-25T10:00:48.279Z,100069.51
2019-04-25T10:03:17.905Z,100069.89
2019-04-25T10:05:47.568Z,100068.75
2019-04-25T10:08:17.050Z,100068.59
2019-04-25T10:10:46.724Z,100068.88
2019-04-25T10:13:16.323Z,100065.31
2019-04-25T10:15:59.230Z,100061.88
2019-04-25T10:18:28.799Z,100067.64
2019-04-25T10:20:58.351Z,100064.66
2019-04-25T10:23:27.899Z,100063.59
2019-04-25T10:25:57.613Z,100062.86
2019-04-25T10:28:28.001Z,100065.44
2019-04-25T10:30:57.671Z,100066.28
2019-04-25T10:33:27.667Z,100057.50
2019-04-25T10:36:00.566Z,100056.86
2019-04-25T10:38:28.648Z,100056.03
2019-04-25T10:40:58.295Z,100057.98
2019-04-25T10:43:28.051Z,100057.14
2019-04-25T10:45:57.685Z,100050.98
2019-04-25T10:48:27.361Z,100044.91
2019-04-25T10:50:56.923Z,100049.20
2019-04-25T10:53:26.501Z,100031.30
2019-04-25T10:55:55.991Z,100033.23
2019-04-25T10:58:25.659Z,100029.25
2019-04-25T11:00:55.297Z,100044.64
2019-04-25T11:03:27.753Z,100046.05
2019-04-25T11:05:57.747Z,100043.63
2019-04-25T11:08:27.288Z,100044.37
2019-04-25T11:10:58.790Z,100046.16
2019-04-25T11:13:28.709Z,100043.75
2019-04-25T11:15:58.491Z,100041.58
2019-04-25T11:18:28.057Z,100038.28
2019-04-25T11:20:57.609Z,100042.12
2019-04-25T11:23:27.217Z,100044.38
2019-04-25T11:25:56.842Z,100037.53
2019-04-25T11:28:26.458Z,100031.50
2019-04-25T11:30:56.970Z,100030.77
2019-04-25T11:33:27.032Z,100034.03
2019-04-25T11:35:56.629Z,100029.80
2019-04-25T11:38:30.753Z,100015.33
2019-04-25T11:41:09.914Z,100013.76
2019-04-25T11:43:39.478Z,100013.55
2019-04-25T11:46:09.054Z,99991.72
2019-04-25T11:48:38.672Z,99995.11
2019-04-25T11:51:08.453Z,99989.74
2019-04-25T11:53:38.004Z,99982.08
2019-04-25T11:56:07.565Z,99985.10
2019-04-25T11:58:37.157Z,99980.44
2019-04-25T12:01:07.469Z,99981.46
2019-04-25T12:03:36.975Z,99973.86
2019-04-25T12:06:06.785Z,99973.39
2019-04-25T12:08:36.300Z,99973.48
2019-04-25T12:11:06.058Z,99966.72
2019-04-25T12:13:35.621Z,99956.88
2019-04-25T12:16:05.263Z,99965.03
2019-04-25T12:18:35.455Z,99960.98
2019-04-25T12:21:05.056Z,99964.77
2019-04-25T12:23:34.631Z,99959.09
2019-04-25T12:26:04.347Z,99951.13
2019-04-25T12:28:33.925Z,99958.05
2019-04-25T12:31:03.438Z,99963.06
2019-04-25T12:33:32.917Z,99960.78
2019-04-25T12:36:02.428Z,99961.81
2019-04-25T12:38:33.452Z,99959.81
2019-04-25T12:41:04.113Z,99954.45
2019-04-25T12:43:36.552Z,99948.95
2019-04-25T12:46:08.761Z,99944.17
2019-04-25T12:48:38.473Z,99946.45
2019-04-25T12:51:08.132Z,99946.96
2019-04-25T12:53:37.639Z,99951.69
2019-04-25T12:56:07.158Z,99955.30
2019-04-25T12:58:36.732Z,99960.88
2019-04-25T13:01:07.504Z,99961.20
2019-04-25T13:03:36.987Z,99963.98
2019-04-25T13:06:06.565Z,99962.66
2019-04-25T13:08:36.045Z,99963.76
2019-04-25T13:11:08.560Z,99966.92
2019-04-25T13:13:36.828Z,99966.64
2019-04-25T13:16:07.361Z,99972.09
2019-04-25T13:18:36.874Z,99987.39
2019-04-25T13:21:06.368Z,99981.88
2019-04-25T13:23:35.942Z,99986.25
2019-04-25T13:26:05.584Z,99971.38
2019-04-25T13:28:49.625Z,99988.83
2019-04-25T13:31:20.766Z,99969.59
2019-04-25T13:34:01.668Z,99967.05
2019-04-25T13:36:32.967Z,99970.52
2019-04-25T13:39:07.210Z,99963.47
2019-04-25T13:41:36.702Z,99962.35
2019-04-25T13:44:07.127Z,99947.13
2019-04-25T13:46:37.267Z,99950.01
2019-04-25T13:49:06.945Z,99944.07
2019-04-25T13:51:36.445Z,99940.73
2019-04-25T13:54:06.255Z,99943.27
2019-04-25T13:56:40.408Z,99950.24
2019-04-25T13:59:07.944Z,99941.19
2019-04-25T14:01:37.484Z,99942.81
2019-04-25T14:04:07.122Z,99947.15
2019-04-25T14:06:36.741Z,99939.17
2019-04-25T14:09:09.612Z,99943.41
2019-04-25T14:11:39.146Z,99942.84
2019-04-25T14:14:08.717Z,99945.64
2019-04-25T14:16:38.083Z,99929.28
2019-04-25T14:19:10.366Z,99924.13
2019-04-25T14:21:40.132Z,99929.36
2019-04-25T14:24:19.855Z,99930.19
2019-04-25T14:26:40.927Z,99926.08
2019-04-25T14:29:10.412Z,99914.41
2019-04-25T14:31:45.835Z,99917.92
2019-04-25T14:34:11.131Z,99920.82
2019-04-25T14:36:40.689Z,99918.96
2019-04-25T14:39:10.555Z,99921.28
2019-04-25T14:41:43.096Z,99922.24
2019-04-25T14:44:12.741Z,99922.97
2019-04-25T14:46:42.237Z,99919.31
2019-04-25T14:49:11.954Z,99919.45
2019-04-25T14:51:41.523Z,99917.45
2019-04-25T14:54:12.668Z,99916.48
2019-04-25T14:56:43.784Z,99923.20
2019-04-25T14:59:13.973Z,99925.22
2019-04-25T15:01:45.222Z,99926.02
2019-04-25T15:04:14.945Z,99927.19
2019-04-25T15:06:44.449Z,99919.36
2019-04-25T15:09:14.079Z,99928.45
2019-04-25T15:11:43.663Z,99927.40
2019-04-25T15:14:13.235Z,99927.06
2019-04-25T15:16:42.904Z,99921.81
2019-04-25T15:19:12.476Z,99912.55
2019-04-25T15:21:42.197Z,99908.78
2019-04-25T15:24:11.770Z,99911.81
2019-04-25T15:26:41.396Z,99910.95
2019-04-25T15:29:10.971Z,99899.05
2019-04-25T15:31:40.594Z,99889.11
2019-04-25T15:34:10.227Z,99895.91
2019-04-25T15:36:41.349Z,99904.66
2019-04-25T15:39:28.906Z,99916.91
2019-04-25T15:42:00.003Z,99924.61
2019-04-25T15:44:47.035Z,99918.97
2019-04-25T15:47:18.261Z,99916.80
2019-04-25T15:49:47.750Z,99929.69
2019-04-25T15:52:17.491Z,99924.98
2019-04-25T15:54:47.048Z,99926.17
2019-04-25T15:57:16.601Z,99920.58
2019-04-25T15:59:46.104Z,99927.73
2019-04-25T16:02:16.171Z,99928.58
2019-04-25T16:04:45.710Z,99929.30
2019-04-25T16:07:15.762Z,99933.80
2019-04-25T16:09:45.289Z,99929.06
2019-04-25T16:12:15.254Z,99927.49
2019-04-25T16:14:44.785Z,99938.62
2019-04-25T16:17:14.373Z,99952.17
2019-04-25T16:19:43.947Z,99965.38
2019-04-25T16:22:13.507Z,99968.95
2019-04-25T16:24:42.970Z,99967.44
2019-04-25T16:27:12.933Z,99963.95
2019-04-25T16:29:42.476Z,99966.89
2019-04-25T16:32:20.538Z,99962.19
2019-04-25T16:34:44.888Z,99945.13
2019-04-25T16:37:14.728Z,99944.73
2019-04-25T16:39:44.991Z,99960.83
2019-04-25T16:42:14.830Z,99970.17
2019-04-25T16:44:44.385Z,99979.07
2019-04-25T16:47:15.573Z,99994.55
2019-04-25T16:49:45.121Z,99997.94
2019-04-25T16:52:17.547Z,100004.42
2019-04-25T16:54:46.302Z,99998.17
2019-04-25T16:57:15.948Z,100000.20
2019-04-25T16:59:45.656Z,100013.90
2019-04-25T17:02:15.817Z,100028.97
2019-04-25T17:04:45.361Z,100041.28
2019-04-25T17:07:15.148Z,100050.52
2019-04-25T17:09:44.766Z,100036.47
2019-04-25T17:12:14.584Z,100039.32
2019-04-25T17:14:54.532Z,100029.03
2019-04-25T17:17:40.524Z,100040.64
2019-04-25T17:20:16.059Z,100045.72
2019-04-25T17:22:47.931Z,100050.87
2019-04-25T17:25:17.688Z,100068.25
2019-04-25T17:27:47.187Z,100063.77
2019-04-25T17:30:17.674Z,100057.66
2019-04-25T17:33:04.866Z,100032.53
2019-04-25T17:35:48.077Z,100033.89
2019-04-25T17:38:19.533Z,100044.47
2019-04-25T17:40:49.144Z,100055.16
2019-04-25T17:43:18.686Z,100067.23
2019-04-25T17:45:48.840Z,100064.09
2019-04-25T17:48:18.388Z,100045.70
2019-04-25T17:50:47.949Z,100036.86
2019-04-25T17:53:17.448Z,100043.25
2019-04-25T17:55:46.972Z,100048.62
2019-04-25T17:58:16.519Z,100048.34
2019-04-25T18:00:47.914Z,100050.09
2019-04-25T18:03:17.638Z,100056.76
2019-04-25T18:05:53.059Z,100069.06
2019-04-25T18:08:23.813Z,100077.69
2019-04-25T18:10:53.503Z,100085.51
2019-04-25T18:13:24.083Z,100079.41
2019-04-25T18:15:55.236Z,100080.48
2019-04-25T18:18:39.141Z,100087.33
2019-04-25T18:21:08.764Z,100096.17
2019-04-25T18:23:55.739Z,100103.54
2019-04-25T18:26:32.312Z,100116.89
2019-04-25T18:29:06.196Z,100119.75
2019-04-25T18:31:37.430Z,100126.62
2019-04-25T18:34:11.422Z,100131.28
2019-04-25T18:37:00.965Z,100123.23
2019-04-25T18:39:35.387Z,100150.03
2019-04-25T18:42:23.686Z,100160.52
2019-04-25T18:44:53.258Z,100165.75
2019-04-25T18:47:22.762Z,100164.35
2019-04-25T18:49:52.413Z,100161.97
2019-04-25T18:52:26.233Z,100170.55
2019-04-25T18:55:00.243Z,100182.94
2019-04-25T18:57:33.994Z,100178.03
2019-04-25T19:00:05.812Z,100183.92
2019-04-25T19:02:46.049Z,100187.42
2019-04-25T19:05:20.084Z,100206.95
2019-04-25T19:07:49.636Z,100211.01
2019-04-25T19:10:19.327Z,100217.09
2019-04-25T19:12:49.043Z,100217.88
2019-04-25T19:15:19.129Z,100214.65
2019-04-25T19:17:48.724Z,100213.65
2019-04-25T19:20:18.352Z,100223.55
2019-04-25T19:22:48.315Z,100223.65
2019-04-25T19:25:17.991Z,100231.45
2019-04-25T19:27:47.607Z,100234.53
2019-04-25T19:30:19.017Z,100240.15
2019-04-25T19:32:49.108Z,100244.14
2019-04-25T19:35:18.770Z,100249.81
2019-04-25T19:37:48.573Z,100246.82
2019-04-25T19:40:20.021Z,100243.84
2019-04-25T19:42:54.010Z,100243.84
2019-04-25T19:45:23.627Z,100249.95
2019-04-25T19:47:53.185Z,100237.27
2019-04-25T19:50:22.779Z,100244.26
2019-04-25T19:52:52.403Z,100226.45
2019-04-25T19:55:21.955Z,100233.42
2019-04-25T19:57:52.449Z,100247.36
2019-04-25T20:00:22.722Z,100242.38
2019-04-25T20:02:56.525Z,100240.28
2019-04-25T20:05:33.574Z,100250.37
2019-04-25T20:08:04.854Z,100254.25
2019-04-25T20:10:51.631Z,100262.15
2019-04-25T20:13:21.182Z,100262.15
2019-04-25T20:15:51.744Z,100270.84
2019-04-25T20:18:21.278Z,100263.85
2019-04-25T20:20:50.748Z,100259.46
2019-04-25T20:23:20.333Z,100269.06
2019-04-25T20:25:50.704Z,100268.73
2019-04-25T20:28:20.346Z,100270.95
2019-04-25T20:30:49.862Z,100263.50
2019-04-25T20:33:19.523Z,100256.20
2019-04-25T20:35:49.046Z,100266.30
2019-04-25T20:38:18.661Z,100269.81
2019-04-25T20:40:48.230Z,100272.04
2019-04-25T20:43:17.757Z,100272.47
2019-04-25T20:45:48.253Z,100277.28
2019-04-25T20:48:17.879Z,100271.20
2019-04-25T20:50:48.283Z,100269.42
2019-04-25T20:53:17.847Z,100277.67
2019-04-25T20:55:47.500Z,100280.73
2019-04-25T20:58:17.115Z,100282.05
2019-04-25T21:00:49.549Z,100285.94
2019-04-25T21:03:19.150Z,100291.56
2019-04-25T21:05:51.038Z,100275.38
2019-04-25T21:08:20.619Z,100267.48
2019-04-25T21:10:50.684Z,100260.91
2019-04-25T21:13:22.802Z,100253.96
2019-04-25T21:15:56.895Z,100261.05
2019-04-25T21:18:30.846Z,100270.21
2019-04-25T21:21:01.258Z,100285.87
2019-04-25T21:23:30.860Z,100291.97
2019-04-25T21:26:01.240Z,100297.19
2019-04-25T21:28:30.745Z,100290.30
2019-04-25T21:31:02.410Z,100282.39
2019-04-25T21:33:31.526Z,100279.33
2019-04-25T21:36:01.575Z,100269.34
2019-04-25T21:38:31.535Z,100287.22
2019-04-25T21:41:02.757Z,100287.34
2019-04-25T21:43:34.103Z,100294.30
2019-04-25T21:46:03.976Z,100309.04
2019-04-25T21:48:33.739Z,100313.85
2019-04-25T21:51:05.149Z,100312.09
2019-04-25T21:53:34.673Z,100312.08
2019-04-25T21:56:04.344Z,100308.63
2019-04-25T21:58:33.827Z,100300.80
2019-04-25T22:01:05.397Z,100318.19
2019-04-25T22:03:34.945Z,100329.48
2019-04-25T22:06:05.099Z,100312.95
2019-04-25T22:08:34.683Z,100318.16
2019-04-25T22:11:04.281Z,100315.56
2019-04-25T22:13:34.871Z,100301.68
2019-04-25T22:16:05.873Z,100307.33
2019-04-25T22:18:35.757Z,100319.07
2019-04-25T22:21:05.454Z,100320.81
2019-04-25T22:23:36.036Z,100318.22
2019-04-25T22:26:05.932Z,100312.11
2019-04-25T22:28:36.442Z,100299.53
2019-04-25T22:31:10.747Z,100275.62
2019-04-25T22:33:44.578Z,100279.16
2019-04-25T22:36:15.990Z,100271.34
2019-04-25T22:38:47.213Z,100261.33
2019-04-25T22:41:16.776Z,100271.73
2019-04-25T22:43:48.208Z,100277.36
2019-04-25T22:46:25.687Z,100265.25
2019-04-25T22:48:49.224Z,100266.97
2019-04-25T22:51:19.165Z,100264.78
2019-04-25T22:53:48.800Z,100266.09
2019-04-25T22:56:18.341Z,100262.21
2019-04-25T22:58:47.930Z,100247.00
2019-04-25T23:01:19.371Z,100237.48
2019-04-25T23:03:50.508Z,100228.36
2019-04-25T23:06:20.207Z,100245.27
2019-04-25T23:08:49.713Z,100248.31
2019-04-25T23:11:19.202Z,100247.89
2019-04-25T23:13:48.793Z,100251.38
2019-04-25T23:16:18.465Z,100257.43
2019-04-25T23:18:47.979Z,100258.31
2019-04-25T23:21:17.455Z,100264.83
2019-04-25T23:23:46.968Z,100270.02
2019-04-25T23:26:22.031Z,100271.77
2019-04-25T23:28:56.200Z,100279.14
2019-04-25T23:31:27.361Z,100287.82
2019-04-25T23:33:57.223Z,100283.03
2019-04-25T23:36:26.728Z,100280.89
2019-04-25T23:38:56.285Z,100284.34
2019-04-25T23:41:25.973Z,100285.66
2019-04-25T23:43:55.470Z,100303.91
2019-04-25T23:46:25.169Z,100303.02
2019-04-25T23:48:54.654Z,100292.59
2019-04-25T23:51:24.139Z,100293.02
2019-04-25T23:53:53.932Z,100295.21
2019-04-25T23:56:23.493Z,100294.75
2019-04-25T23:58:53.156Z,100296.51
